Time;durP1;ratioP1;P1;durP2;ratioP2;P2;SDS_P1;SDS_P2;PMS_P1;PMS_P2;Temp;Humidity;BMP_temperature;BMP_pressure;BME280_temperature;BME280_humidity;BME280_pressure;Samples;Min_cycle;Max_cycle;Signal;HPM_P1;HPM_P2
2022/05/28 00:02:08;;;;;;;;;;;;;;;12.95;70.05;102341.84;5039327;28;20064;-77
2022/05/28 00:04:33;;;;;;;;;;;;;;;12.95;70.02;102334.84;5005161;28;19916;-77
2022/05/28 00:06:58;;;;;;;;;;;;;;;12.96;70.23;102346.19;5038745;28;20149;-77
2022/05/28 00:09:23;;;;;;;;;;;;;;;12.95;70.32;102340.09;5017918;28;19941;-77
2022/05/28 00:11:49;;;;;;;;;;;;;;;12.97;70.55;102329.50;5004506;28;20091;-77
2022/05/28 00:14:14;;;;;;;;;;;;;;;12.97;70.40;102332.13;5021357;28;19915;-77
2022/05/28 00:16:41;;;;;;;;;;;;;;;12.95;70.62;102321.69;5028274;28;19980;-77
2022/05/28 00:19:07;;;;;;;;;;;;;;;12.96;70.84;102320.75;5036043;28;19920;-77
2022/05/28 00:21:32;;;;;;;;;;;;;;;12.95;71.09;102319.06;5037938;28;19918;-77
2022/05/28 00:23:58;;;;;;;;;;;;;;;12.95;70.85;102319.06;5038920;28;19924;-77
2022/05/28 00:26:23;;;;;;;;;;;;;;;12.95;70.92;102328.69;5037544;28;19925;-77
2022/05/28 00:28:50;;;;;;;;;;;;;;;12.94;70.84;102325.19;5027536;28;19917;-77
2022/05/28 00:31:15;;;;;;;;;;;;;;;12.94;71.31;102324.34;5029918;28;19940;-77
2022/05/28 00:33:41;;;;;;;;;;;;;;;12.94;71.23;102324.34;5035917;28;19919;-77
2022/05/28 00:36:09;;;;;;;;;;;;;;;12.94;71.04;102325.19;5027152;28;20176;-77
2022/05/28 00:38:34;;;;;;;;;;;;;;;12.96;71.24;102322.53;5020360;28;19928;-77
2022/05/28 00:41:00;;;;;;;;;;;;;;;12.97;70.79;102326.88;5036799;28;19916;-77
2022/05/28 00:43:27;;;;;;;;;;;;;;;12.95;71.41;102315.53;5037735;28;19921;-77
2022/05/28 00:45:57;;;;;;;;;;;;;;;12.94;71.30;102319.94;5034457;28;19921;-77
2022/05/28 00:48:24;;;;;;;;;;;;;;;12.92;71.53;102313.88;5026437;28;20209;-77
2022/05/28 00:50:50;;;;;;;;;;;;;;;12.91;71.54;102313.91;5038014;28;19936;-77
2022/05/28 00:53:15;;;;;;;;;;;;;;;12.90;71.62;102315.69;5020475;28;19959;-77
2022/05/28 00:55:41;;;;;;;;;;;;;;;12.88;71.88;102317.50;5017464;28;20209;-77
2022/05/28 00:58:07;;;;;;;;;;;;;;;12.86;72.15;102328.03;5000906;28;19980;-77
2022/05/28 01:00:34;;;;;;;;;;;;;;;12.82;72.81;102318.53;5033192;28;20280;-77
2022/05/28 01:03:14;;;;;;;;;;;;;;;12.82;72.92;102325.53;5024951;28;19915;-77
2022/05/28 01:05:44;;;;;;;;;;;;;;;12.80;72.89;102320.28;5036072;28;19917;-77
2022/05/28 01:08:13;;;;;;;;;;;;;;;12.81;72.94;102322.03;5031648;28;19916;-77
2022/05/28 01:10:48;;;;;;;;;;;;;;;12.82;73.00;102315.88;5027918;28;19920;-77
2022/05/28 01:13:19;;;;;;;;;;;;;;;12.82;72.92;102323.78;5035754;28;19940;-78
2022/05/28 01:15:54;;;;;;;;;;;;;;;12.81;73.14;102319.41;5036518;28;20184;-77
2022/05/28 01:18:25;;;;;;;;;;;;;;;12.81;73.31;102322.03;5030735;28;19917;-78
2022/05/28 01:20:52;;;;;;;;;;;;;;;12.83;73.20;102319.38;5030361;28;19966;-77
2022/05/28 01:23:17;;;;;;;;;;;;;;;12.83;73.69;102322.00;5038052;28;19912;-77
2022/05/28 01:25:52;;;;;;;;;;;;;;;12.84;73.18;102323.72;5025012;28;20127;-77
2022/05/28 01:28:19;;;;;;;;;;;;;;;12.85;73.44;102328.94;5034154;28;19940;-77
2022/05/28 01:30:45;;;;;;;;;;;;;;;12.83;73.82;102322.84;5027238;28;19909;-77
2022/05/28 01:33:12;;;;;;;;;;;;;;;12.85;73.83;102315.78;5022993;28;20078;-77
2022/05/28 01:35:38;;;;;;;;;;;;;;;12.87;73.84;102318.38;5034734;28;19983;-77
2022/05/28 01:38:04;;;;;;;;;;;;;;;12.87;73.53;102310.50;5037229;28;19921;-77
2022/05/28 01:40:30;;;;;;;;;;;;;;;12.89;73.62;102316.56;5036989;28;19948;-77
2022/05/28 01:42:57;;;;;;;;;;;;;;;12.88;73.73;102312.22;5037630;28;20299;-77
2022/05/28 01:45:26;;;;;;;;;;;;;;;12.87;73.70;102316.59;5037235;28;19917;-77
2022/05/28 01:47:51;;;;;;;;;;;;;;;12.88;73.93;102312.22;5014154;28;19921;-77
2022/05/28 01:50:18;;;;;;;;;;;;;;;12.89;73.82;102311.31;5020001;28;20123;-77
2022/05/28 01:52:44;;;;;;;;;;;;;;;12.92;73.92;102320.91;5035943;28;19924;-77
2022/05/28 01:55:10;;;;;;;;;;;;;;;12.92;73.77;102311.25;5039998;28;19909;-77
2022/05/28 01:57:35;;;;;;;;;;;;;;;12.93;73.64;102306.84;5040418;28;19931;-77
2022/05/28 02:00:01;;;;;;;;;;;;;;;12.92;73.42;102300.72;5022622;28;20254;-77
2022/05/28 02:02:26;;;;;;;;;;;;;;;12.93;73.20;102310.31;5020444;28;19913;-77
2022/05/28 02:04:51;;;;;;;;;;;;;;;12.93;73.56;102306.84;5047761;28;19916;-77
2022/05/28 02:07:17;;;;;;;;;;;;;;;12.93;73.16;102312.94;5047293;28;19923;-77
2022/05/28 02:09:45;;;;;;;;;;;;;;;12.93;73.08;102302.44;5043422;28;20258;-77
2022/05/28 02:12:17;;;;;;;;;;;;;;;12.94;73.22;102312.06;5055172;28;19916;-77
2022/05/28 02:14:51;;;;;;;;;;;;;;;12.94;73.13;102303.31;5041922;28;20002;-77
2022/05/28 02:17:31;;;;;;;;;;;;;;;12.94;73.16;102303.31;5041330;28;20259;-77
2022/05/28 02:20:00;;;;;;;;;;;;;;;12.94;72.88;102305.94;5042162;28;20205;-77
2022/05/28 02:22:31;;;;;;;;;;;;;;;12.92;72.92;102305.13;5023469;28;19924;-77
2022/05/28 02:25:00;;;;;;;;;;;;;;;12.93;73.38;102304.19;5041623;28;19976;-77
2022/05/28 02:27:26;;;;;;;;;;;;;;;12.92;73.22;102305.13;5019610;28;19944;-77
2022/05/28 02:29:51;;;;;;;;;;;;;;;12.93;73.25;102301.56;5021611;28;19945;-77
2022/05/28 02:32:21;;;;;;;;;;;;;;;12.90;73.11;102297.28;5024212;28;19928;-77
2022/05/28 02:34:47;;;;;;;;;;;;;;;12.90;73.52;102299.00;5041313;28;19985;-77
2022/05/28 02:37:13;;;;;;;;;;;;;;;12.88;73.39;102291.19;5022045;28;19913;-77
2022/05/28 02:39:38;;;;;;;;;;;;;;;12.88;73.49;102304.34;5041214;28;20254;-77
2022/05/28 02:42:04;;;;;;;;;;;;;;;12.87;73.59;102298.19;5040631;28;19917;-77
2022/05/28 02:44:29;;;;;;;;;;;;;;;12.85;73.44;102300.00;5040227;28;19991;-77
2022/05/28 02:46:54;;;;;;;;;;;;;;;12.84;73.78;102298.31;5040875;28;20121;-74
2022/05/28 02:49:20;;;;;;;;;;;;;;;12.84;73.46;102298.31;5040025;28;19944;-74
2022/05/28 02:51:45;;;;;;;;;;;;;;;12.81;73.75;102298.38;5040712;28;19983;-74
2022/05/28 02:54:10;;;;;;;;;;;;;;;12.81;73.75;102295.75;5039707;28;19959;-74
2022/05/28 02:56:35;;;;;;;;;;;;;;;12.81;73.30;102297.53;5022521;28;19921;-75
2022/05/28 02:59:01;;;;;;;;;;;;;;;12.79;73.10;102294.94;5039823;28;20098;-74
2022/05/28 03:01:27;;;;;;;;;;;;;;;12.77;73.08;102291.47;5039365;28;19987;-74
2022/05/28 03:03:53;;;;;;;;;;;;;;;12.75;73.08;102297.66;5040674;28;19913;-75
2022/05/28 03:06:18;;;;;;;;;;;;;;;12.73;73.21;102302.97;5038942;28;20027;-75
2022/05/28 03:08:44;;;;;;;;;;;;;;;12.73;73.31;102295.06;5040462;28;20200;-74
2022/05/28 03:11:09;;;;;;;;;;;;;;;12.73;73.25;102297.69;5014342;28;19943;-75
2022/05/28 03:13:34;;;;;;;;;;;;;;;12.73;73.00;102305.59;5040414;28;19913;-74
2022/05/28 03:16:00;;;;;;;;;;;;;;;12.71;73.11;102299.50;5039106;28;19947;-75
2022/05/28 03:18:25;;;;;;;;;;;;;;;12.72;73.00;102305.66;5039848;28;19931;-75
2022/05/28 03:20:50;;;;;;;;;;;;;;;12.68;73.06;102297.84;5021811;28;19998;-75
2022/05/28 03:23:15;;;;;;;;;;;;;;;12.70;73.19;102308.31;5039877;28;19917;-75
2022/05/28 03:25:41;;;;;;;;;;;;;;;12.70;72.95;102307.44;5039515;28;19987;-74
2022/05/28 03:28:06;;;;;;;;;;;;;;;12.67;72.98;102308.38;5038388;28;20258;-74
2022/05/28 03:30:31;;;;;;;;;;;;;;;12.67;72.85;102313.66;5039428;28;20002;-75
2022/05/28 03:32:57;;;;;;;;;;;;;;;12.67;72.86;102313.66;5037425;28;19971;-75
2022/05/28 03:35:22;;;;;;;;;;;;;;;12.66;72.67;102314.53;5037163;28;19931;-74
2022/05/28 03:37:47;;;;;;;;;;;;;;;12.65;72.82;102311.06;5037875;28;19917;-75
2022/05/28 03:40:12;;;;;;;;;;;;;;;12.65;72.84;102316.31;5036476;28;19920;-74
2022/05/28 03:42:38;;;;;;;;;;;;;;;12.64;72.83;102313.72;5037819;28;20180;-75
2022/05/28 03:45:03;;;;;;;;;;;;;;;12.63;72.76;102312.88;5019745;28;20240;-74
2022/05/28 03:47:30;;;;;;;;;;;;;;;12.64;72.58;102317.22;5036850;28;19921;-75
2022/05/28 03:49:55;;;;;;;;;;;;;;;12.64;72.62;102316.34;5038232;28;19912;-75
2022/05/28 03:52:20;;;;;;;;;;;;;;;12.63;72.31;102318.13;5019462;28;20379;-74
2022/05/28 03:54:45;;;;;;;;;;;;;;;12.63;72.53;102312.00;5037656;28;19921;-75
2022/05/28 03:57:16;;;;;;;;;;;;;;;12.63;72.42;102309.38;5036856;28;19925;-74
2022/05/28 03:59:42;;;;;;;;;;;;;;;12.62;72.06;102310.28;5037544;28;19912;-75
2022/05/28 04:02:07;;;;;;;;;;;;;;;12.60;71.81;102315.56;5036902;28;19921;-75
2022/05/28 04:04:32;;;;;;;;;;;;;;;12.57;71.70;102317.41;5019589;28;19925;-74
2022/05/28 04:06:58;;;;;;;;;;;;;;;12.55;71.26;102321.84;5037076;28;19920;-75
2022/05/28 04:09:24;;;;;;;;;;;;;;;12.53;71.41;102321.88;5036592;28;19913;-75
2022/05/28 04:11:49;;;;;;;;;;;;;;;12.52;71.35;102324.56;5037311;28;19992;-75
2022/05/28 04:14:14;;;;;;;;;;;;;;;12.52;70.92;102329.81;5019731;28;19909;-74
2022/05/28 04:16:39;;;;;;;;;;;;;;;12.48;71.23;102327.25;5023795;28;19921;-74
2022/05/28 04:19:05;;;;;;;;;;;;;;;12.48;71.03;102329.88;5035807;28;19940;-75
2022/05/28 04:21:30;;;;;;;;;;;;;;;12.49;71.31;102328.97;5036586;28;19928;-75
2022/05/28 04:23:55;;;;;;;;;;;;;;;12.49;71.66;102334.22;5036833;28;19927;-75
2022/05/28 04:26:21;;;;;;;;;;;;;;;12.50;71.28;102335.09;5017658;28;19979;-74
2022/05/28 04:28:46;;;;;;;;;;;;;;;12.49;71.50;102334.22;5036949;28;20325;-75
2022/05/28 04:31:11;;;;;;;;;;;;;;;12.49;71.52;102336.84;5036441;28;20479;-74
2022/05/28 04:33:36;;;;;;;;;;;;;;;12.49;71.47;102350.00;5018728;28;19945;-75
2022/05/28 04:36:02;;;;;;;;;;;;;;;12.47;71.10;102341.28;5018559;28;19917;-75
2022/05/28 04:38:28;;;;;;;;;;;;;;;12.47;71.12;102337.81;5017748;28;19920;-74
2022/05/28 04:40:53;;;;;;;;;;;;;;;12.43;70.49;102336.16;5037341;28;19923;-75
2022/05/28 04:43:18;;;;;;;;;;;;;;;12.40;70.68;102338.84;5036721;28;19917;-74
2022/05/28 04:45:45;;;;;;;;;;;;;;;12.41;70.63;102351.09;5036198;28;19953;-75
2022/05/28 04:48:10;;;;;;;;;;;;;;;12.35;70.23;102336.34;5036068;28;19928;-74
2022/05/28 04:50:35;;;;;;;;;;;;;;;12.34;70.02;102334.63;5036286;28;19983;-74
2022/05/28 04:53:00;;;;;;;;;;;;;;;12.34;70.45;102342.50;5036232;28;19927;-74
2022/05/28 04:55:26;;;;;;;;;;;;;;;12.34;70.10;102345.13;5036607;28;19909;-74
2022/05/28 04:57:54;;;;;;;;;;;;;;;12.32;70.13;102344.31;5036017;28;19951;-74
2022/05/28 05:00:21;;;;;;;;;;;;;;;12.30;69.90;102338.22;5035159;28;19917;-74
2022/05/28 05:02:46;;;;;;;;;;;;;;;12.28;70.25;102346.13;5035606;28;19952;-75
2022/05/28 05:05:12;;;;;;;;;;;;;;;12.26;70.39;102340.06;5035471;28;19971;-75
2022/05/28 05:07:37;;;;;;;;;;;;;;;12.25;70.68;102351.44;5018126;28;19936;-74
2022/05/28 05:10:03;;;;;;;;;;;;;;;12.23;70.35;102355.03;5035420;28;19963;-74
2022/05/28 05:12:28;;;;;;;;;;;;;;;12.21;70.29;102346.31;5035406;28;19917;-74
2022/05/28 05:14:54;;;;;;;;;;;;;;;12.21;70.65;102356.84;5035905;28;19917;-74
2022/05/28 05:17:19;;;;;;;;;;;;;;;12.19;70.17;102356.00;5035265;28;19921;-74
2022/05/28 05:19:44;;;;;;;;;;;;;;;12.16;69.88;102358.69;5036819;28;19912;-74
2022/05/28 05:22:09;;;;;;;;;;;;;;;12.16;70.17;102363.94;5036099;28;19913;-74
2022/05/28 05:24:34;;;;;;;;;;;;;;;12.16;69.89;102364.81;5036320;28;20015;-74
2022/05/28 05:27:00;;;;;;;;;;;;;;;12.17;70.34;102374.44;5035905;28;19917;-75
2022/05/28 05:29:26;;;;;;;;;;;;;;;12.17;70.25;102363.03;5037907;28;20128;-75
2022/05/28 05:31:51;;;;;;;;;;;;;;;12.15;69.95;102363.09;5039934;28;20204;-74
2022/05/28 05:34:17;;;;;;;;;;;;;;;12.18;70.75;102370.88;5039713;28;19917;-74
2022/05/28 05:36:42;;;;;;;;;;;;;;;12.20;71.06;102368.22;5040427;28;20276;-75
2022/05/28 05:39:07;;;;;;;;;;;;;;;12.23;70.64;102370.78;5039764;28;19984;-74
2022/05/28 05:41:37;;;;;;;;;;;;;;;12.23;70.33;102373.41;5040567;28;19921;-75
2022/05/28 05:44:02;;;;;;;;;;;;;;;12.20;69.83;102371.69;5039601;28;19917;-75
2022/05/28 05:46:27;;;;;;;;;;;;;;;12.20;69.90;102370.84;5039501;28;19928;-75
2022/05/28 05:48:53;;;;;;;;;;;;;;;12.21;69.79;102381.31;5045744;28;19923;-75
2022/05/28 05:51:18;;;;;;;;;;;;;;;12.21;69.46;102375.22;5041337;28;20229;-74
2022/05/28 05:53:43;;;;;;;;;;;;;;;12.20;69.68;102379.59;5042083;28;19944;-74
2022/05/28 05:56:09;;;;;;;;;;;;;;;12.17;69.64;102386.66;5039916;28;19917;-74
2022/05/28 05:58:34;;;;;;;;;;;;;;;12.16;69.91;102379.72;5039423;28;20216;-74
2022/05/28 06:01:01;;;;;;;;;;;;;;;12.16;69.83;102385.81;5039724;28;19920;-74
2022/05/28 06:03:27;;;;;;;;;;;;;;;12.16;69.96;102385.81;5038757;28;19913;-74
2022/05/28 06:05:56;;;;;;;;;;;;;;;12.17;69.93;102390.19;5039880;28;20141;-74
2022/05/28 06:08:21;;;;;;;;;;;;;;;12.17;70.23;102389.28;5038797;28;19925;-75
2022/05/28 06:10:46;;;;;;;;;;;;;;;12.18;69.72;102393.66;5039774;28;20221;-74
2022/05/28 06:13:11;;;;;;;;;;;;;;;12.17;69.79;102392.81;5018141;28;19921;-75
2022/05/28 06:15:36;;;;;;;;;;;;;;;12.18;70.26;102394.53;5020758;28;20431;-75
2022/05/28 06:18:02;;;;;;;;;;;;;;;12.19;70.11;102385.75;5039466;28;19921;-74
2022/05/28 06:20:28;;;;;;;;;;;;;;;12.22;70.17;102390.91;5038806;28;19928;-74
2022/05/28 06:22:53;;;;;;;;;;;;;;;12.24;70.48;102397.03;5038585;28;19921;-75
2022/05/28 06:25:18;;;;;;;;;;;;;;;12.23;69.93;102386.53;5037847;28;20262;-74
2022/05/28 06:27:46;;;;;;;;;;;;;;;12.24;70.20;102391.78;5037924;28;20156;-74
2022/05/28 06:30:12;;;;;;;;;;;;;;;12.24;70.11;102394.41;5037955;28;20228;-74
2022/05/28 06:32:37;;;;;;;;;;;;;;;12.22;69.68;102396.16;5033151;28;20142;-75
2022/05/28 06:35:02;;;;;;;;;;;;;;;12.24;69.88;102399.66;5011950;28;19920;-74
2022/05/28 06:37:28;;;;;;;;;;;;;;;12.25;69.63;102401.38;5039085;28;20248;-74
2022/05/28 06:39:53;;;;;;;;;;;;;;;12.24;69.43;102401.38;5017627;28;20202;-75
2022/05/28 06:42:18;;;;;;;;;;;;;;;12.26;69.61;102408.34;5031392;28;19928;-75
2022/05/28 06:44:43;;;;;;;;;;;;;;;12.29;69.88;102397.75;5038459;28;19987;-75
2022/05/28 06:47:09;;;;;;;;;;;;;;;12.33;69.94;102402.94;5036768;28;19923;-75
2022/05/28 06:49:35;;;;;;;;;;;;;;;12.35;69.81;102411.66;5037790;28;20216;-75
2022/05/28 06:52:00;;;;;;;;;;;;;;;12.36;69.48;102405.50;5038106;28;19909;-75
2022/05/28 06:54:26;;;;;;;;;;;;;;;12.36;69.26;102401.13;5038196;28;19921;-74
2022/05/28 06:56:52;;;;;;;;;;;;;;;12.30;68.08;102411.78;5007496;28;19991;-75
2022/05/28 06:59:17;;;;;;;;;;;;;;;12.29;68.55;102410.91;5029045;28;19932;-75
2022/05/28 07:01:42;;;;;;;;;;;;;;;12.31;68.43;102410.88;5012777;28;20263;-75
2022/05/28 07:04:07;;;;;;;;;;;;;;;12.31;68.47;102402.97;5030731;28;19921;-74
2022/05/28 07:06:33;;;;;;;;;;;;;;;12.32;68.23;102414.38;5047874;28;20244;-75
2022/05/28 07:08:58;;;;;;;;;;;;;;;12.30;68.04;102417.03;5037675;28;19921;-74
2022/05/28 07:11:24;;;;;;;;;;;;;;;12.33;68.48;102416.09;5008779;28;19909;-74
2022/05/28 07:13:49;;;;;;;;;;;;;;;12.35;68.59;102411.66;5037892;28;20159;-75
2022/05/28 07:16:14;;;;;;;;;;;;;;;12.35;68.54;102428.31;5021157;28;19996;-75
2022/05/28 07:18:40;;;;;;;;;;;;;;;12.34;68.38;102418.69;5036650;28;19970;-75
2022/05/28 07:21:06;;;;;;;;;;;;;;;12.36;68.70;102418.66;5033842;28;20113;-74
2022/05/28 07:23:32;;;;;;;;;;;;;;;12.34;68.36;102421.31;5037408;28;19913;-75
2022/05/28 07:25:59;;;;;;;;;;;;;;;12.32;68.90;102417.00;5024828;28;19963;-74
2022/05/28 07:28:25;;;;;;;;;;;;;;;12.29;68.54;102423.16;5023425;28;20233;-74
2022/05/28 07:30:58;;;;;;;;;;;;;;;12.27;68.27;102428.44;5029533;28;19963;-74
2022/05/28 07:33:25;;;;;;;;;;;;;;;12.26;67.69;102436.38;5032599;28;19929;-75
2022/05/28 07:35:50;;;;;;;;;;;;;;;12.25;67.49;102424.16;5030934;28;19916;-75
2022/05/28 07:38:15;;;;;;;;;;;;;;;12.27;68.30;102419.72;5023801;28;20385;-75
2022/05/28 07:40:41;;;;;;;;;;;;;;;12.25;67.72;102421.53;5035310;28;19927;-75
2022/05/28 07:43:06;;;;;;;;;;;;;;;12.26;67.92;102428.47;5027487;28;19948;-74
2022/05/28 07:45:35;;;;;;;;;;;;;;;12.28;67.82;102437.22;5031060;28;20195;-75
2022/05/28 07:48:00;;;;;;;;;;;;;;;12.29;68.00;102431.91;5032243;28;19963;-75
2022/05/28 07:50:25;;;;;;;;;;;;;;;12.31;68.24;102431.03;5030805;28;19921;-75
2022/05/28 07:52:51;;;;;;;;;;;;;;;12.34;67.87;102428.34;5034707;28;20271;-75
2022/05/28 07:55:16;;;;;;;;;;;;;;;12.37;67.30;102430.88;5026082;28;20139;-75
2022/05/28 07:57:41;;;;;;;;;;;;;;;12.38;67.66;102427.34;5019712;28;19948;-75
2022/05/28 08:00:07;;;;;;;;;;;;;;;12.40;67.63;102425.56;5033259;28;19952;-74
2022/05/28 08:02:32;;;;;;;;;;;;;;;12.39;67.58;102429.09;5029373;28;20018;-74
2022/05/28 08:04:57;;;;;;;;;;;;;;;12.40;67.52;102430.81;5027707;28;19944;-75
2022/05/28 08:07:23;;;;;;;;;;;;;;;12.41;67.56;102429.94;5032619;28;19928;-75
2022/05/28 08:09:48;;;;;;;;;;;;;;;12.43;67.67;102428.13;5013061;28;19920;-75
2022/05/28 08:12:13;;;;;;;;;;;;;;;12.42;67.46;102427.25;5034348;28;19917;-75
2022/05/28 08:14:39;;;;;;;;;;;;;;;12.44;66.87;102437.72;5033497;28;19992;-75
2022/05/28 08:17:04;;;;;;;;;;;;;;;12.42;67.30;102432.50;5019146;28;19948;-75
2022/05/28 08:19:31;;;;;;;;;;;;;;;12.45;66.55;102429.81;5033516;28;19916;-74
2022/05/28 08:24:40;;;;;;;;;;;;;;;12.52;67.00;102433.16;5031950;28;19960;-75
2022/05/28 08:27:05;;;;;;;;;;;;;;;12.52;63.49;102424.41;5022309;28;19921;-75
2022/05/28 08:29:30;;;;;;;;;;;;;;;12.54;64.33;102425.25;5029995;28;19962;-75
2022/05/28 08:31:56;;;;;;;;;;;;;;;12.55;63.87;102425.22;5000959;28;20003;-75
2022/05/28 08:34:21;;;;;;;;;;;;;;;12.56;63.37;102426.94;5016900;28;19946;-75
2022/05/28 08:36:47;;;;;;;;;;;;;;;12.58;63.88;102421.63;5029788;28;19917;-75
2022/05/28 08:39:12;;;;;;;;;;;;;;;12.60;64.21;102423.31;5030918;28;20242;-75
2022/05/28 08:41:42;;;;;;;;;;;;;;;12.61;65.23;102429.47;5033218;28;19925;-74
2022/05/28 08:44:18;;;;;;;;;;;;;;;12.63;65.54;102431.13;5026502;28;19989;-75
2022/05/28 08:46:45;;;;;;;;;;;;;;;12.65;65.31;102424.06;5034638;28;19920;-75
2022/05/28 08:49:12;;;;;;;;;;;;;;;12.63;65.31;102443.41;5034926;28;20237;-75
2022/05/28 08:51:42;;;;;;;;;;;;;;;12.65;65.62;102437.22;5016664;28;20048;-75
2022/05/28 08:54:13;;;;;;;;;;;;;;;12.67;66.13;102438.03;5028390;28;19923;-75
2022/05/28 08:56:39;;;;;;;;;;;;;;;12.70;66.65;102437.13;5033311;28;19995;-75
2022/05/28 08:59:13;;;;;;;;;;;;;;;12.70;65.85;102447.63;5036205;28;19963;-75
2022/05/28 09:01:40;;;;;;;;;;;;;;;12.72;65.92;102447.59;5030584;28;19917;-75
2022/05/28 09:04:10;;;;;;;;;;;;;;;12.72;65.46;102460.75;5037293;28;19905;-75
2022/05/28 09:06:38;;;;;;;;;;;;;;;12.70;65.50;102449.38;5036367;28;19992;-75
2022/05/28 09:09:06;;;;;;;;;;;;;;;12.74;65.77;102443.16;5043403;28;20243;-75
2022/05/28 09:11:53;;;;;;;;;;;;;;;12.75;65.96;102452.75;5044355;28;19916;-75
2022/05/28 09:14:23;;;;;;;;;;;;;;;12.81;66.59;102452.63;5042619;28;20901;-75
2022/05/28 09:16:53;;;;;;;;;;;;;;;12.84;66.02;102448.16;5044855;28;19927;-75
2022/05/28 09:19:23;;;;;;;;;;;;;;;12.85;66.43;102451.66;5039189;28;19916;-74
2022/05/28 09:21:49;;;;;;;;;;;;;;;12.90;67.38;102448.88;5033643;28;19921;-74
2022/05/28 09:24:19;;;;;;;;;;;;;;;12.93;66.84;102446.19;5033176;28;19992;-75
2022/05/28 09:26:50;;;;;;;;;;;;;;;12.95;66.45;102439.13;5023485;28;20183;-75
2022/05/28 09:29:33;;;;;;;;;;;;;;;12.97;66.93;102442.59;5029507;28;20248;-75
2022/05/28 09:32:07;;;;;;;;;;;;;;;13.01;65.28;102453.00;5034495;28;19956;-74
2022/05/28 09:35:01;;;;;;;;;;;;;;;13.03;64.59;102432.78;5018137;28;19911;-75
2022/05/28 09:37:26;;;;;;;;;;;;;;;13.07;64.80;102439.69;5016956;28;19913;-75
2022/05/28 09:39:59;;;;;;;;;;;;;;;13.09;63.58;102441.41;5035840;28;20161;-75
2022/05/28 09:42:40;;;;;;;;;;;;;;;13.09;63.16;102430.91;5012656;28;19983;-75
2022/05/28 09:45:05;;;;;;;;;;;;;;;13.11;64.46;102437.84;5030587;28;20258;-75
2022/05/28 09:47:42;;;;;;;;;;;;;;;13.13;64.25;102435.16;5020050;28;19968;-75
2022/05/28 09:50:15;;;;;;;;;;;;;;;13.15;63.32;102436.88;5022962;28;19913;-75
2022/05/28 09:54:16;;;;;;;;;;;;;;;13.17;64.04;102427.16;5022047;28;19920;-74
2022/05/28 09:55:26;;;;;;;;;;;;;;;13.20;62.99;102437.59;5002962;28;19921;-75
2022/05/28 09:57:52;;;;;;;;;;;;;;;13.22;64.01;102429.66;5020968;28;19925;-75
2022/05/28 10:00:20;;;;;;;;;;;;;;;13.27;63.09;102445.34;5029197;28;19917;-75
2022/05/28 10:05:41;;;;;;;;;;;;;;;13.31;61.69;102436.50;5033292;28;20235;-75
2022/05/28 10:08:10;;;;;;;;;;;;;;;13.35;62.51;102432.88;5029780;28;19916;-75
2022/05/28 10:10:38;;;;;;;;;;;;;;;13.33;60.81;102437.31;5037447;28;19908;-75
2022/05/28 10:13:14;;;;;;;;;;;;;;;13.33;60.62;102432.03;5017240;28;19916;-75
2022/05/28 10:15:43;;;;;;;;;;;;;;;13.34;60.01;102429.38;5039564;28;19924;-75
2022/05/28 10:18:10;;;;;;;;;;;;;;;13.36;59.17;102437.22;5037434;28;19954;-75
2022/05/28 10:20:36;;;;;;;;;;;;;;;13.38;58.85;102427.53;5039358;28;19912;-75
2022/05/28 10:23:03;;;;;;;;;;;;;;;13.41;58.47;102430.09;5027963;28;19927;-75
2022/05/28 10:25:28;;;;;;;;;;;;;;;13.43;58.58;102430.91;5040776;28;20350;-75
2022/05/28 10:27:53;;;;;;;;;;;;;;;13.46;59.47;102435.22;5029301;28;19976;-75
2022/05/28 10:30:32;;;;;;;;;;;;;;;13.46;60.42;102429.94;5048194;28;19917;-75
2022/05/28 10:33:01;;;;;;;;;;;;;;;13.42;57.24;102432.69;5043851;28;19917;-75
2022/05/28 10:35:28;;;;;;;;;;;;;;;13.44;56.32;102438.75;5043970;28;19980;-75
2022/05/28 10:38:04;;;;;;;;;;;;;;;13.42;57.29;102427.41;5038601;28;19944;-75
2022/05/28 10:40:30;;;;;;;;;;;;;;;13.42;57.56;102430.06;5048785;28;20188;-75
2022/05/28 10:43:02;;;;;;;;;;;;;;;13.41;58.09;102428.31;5032617;28;19912;-75
2022/05/28 10:45:33;;;;;;;;;;;;;;;13.43;58.57;102425.63;5046670;28;19974;-75
2022/05/28 10:48:05;;;;;;;;;;;;;;;13.41;58.33;102432.72;5023110;28;19921;-75
2022/05/28 10:50:34;;;;;;;;;;;;;;;13.39;57.48;102426.63;5044298;28;19946;-75
2022/05/28 10:53:17;;;;;;;;;;;;;;;13.41;59.17;102430.94;5046623;28;19921;-75
2022/05/28 10:55:50;;;;;;;;;;;;;;;13.44;60.17;102419.44;5046169;28;19913;-75
2022/05/28 10:58:18;;;;;;;;;;;;;;;13.48;59.62;102431.66;5037162;28;19917;-75
2022/05/28 11:00:52;;;;;;;;;;;;;;;13.52;60.33;102421.91;5043122;28;20049;-75
2022/05/28 11:03:30;;;;;;;;;;;;;;;13.54;59.59;102426.19;5008943;28;20221;-75
2022/05/28 11:06:04;;;;;;;;;;;;;;;13.53;59.54;102426.25;5020644;28;19920;-74
2022/05/28 11:08:50;;;;;;;;;;;;;;;13.50;58.10;102434.22;5023876;28;20457;-75
2022/05/28 11:11:18;;;;;;;;;;;;;;;13.49;59.22;102435.97;5035744;28;19905;-75
2022/05/28 11:13:55;;;;;;;;;;;;;;;13.48;58.92;102428.13;5027379;28;19918;-75
2022/05/28 11:16:30;;;;;;;;;;;;;;;13.52;59.42;102416.63;5036924;28;19952;-75
2022/05/28 11:18:58;;;;;;;;;;;;;;;13.55;57.14;102427.06;5025342;28;19932;-76
2022/05/28 11:21:42;;;;;;;;;;;;;;;13.58;58.11;102427.84;5018952;28;20232;-75
2022/05/28 11:24:25;;;;;;;;;;;;;;;13.63;57.93;102417.19;5036373;28;19983;-75
2022/05/28 11:26:51;;;;;;;;;;;;;;;13.67;58.75;102417.97;5031102;28;20109;-75
2022/05/28 11:29:42;;;;;;;;;;;;;;;13.70;57.83;102425.75;5019865;28;19912;-75
2022/05/28 11:32:13;;;;;;;;;;;;;;;13.72;58.51;102414.28;5007755;28;19917;-75
2022/05/28 11:34:40;;;;;;;;;;;;;;;13.68;56.20;102414.41;5032263;28;20111;-75
2022/05/28 11:37:10;;;;;;;;;;;;;;;13.67;56.34;102416.19;5031839;28;19913;-75
2022/05/28 11:39:43;;;;;;;;;;;;;;;13.67;58.05;102417.97;5028220;28;19917;-75
2022/05/28 11:42:11;;;;;;;;;;;;;;;13.65;58.36;102418.00;5033456;28;20197;-76
2022/05/28 11:44:40;;;;;;;;;;;;;;;13.65;58.92;102417.16;5021121;28;20003;-76
2022/05/28 11:47:15;;;;;;;;;;;;;;;13.62;58.25;102413.69;5018451;28;20244;-75
2022/05/28 11:52:45;;;;;;;;;;;;;;;13.71;58.63;102411.69;5027203;28;19944;-75
2022/05/28 11:55:16;;;;;;;;;;;;;;;13.71;57.74;102403.78;5033492;28;19917;-75
2022/05/28 11:58:00;;;;;;;;;;;;;;;13.70;57.28;102409.97;5030684;28;20109;-76
2022/05/28 12:00:27;;;;;;;;;;;;;;;13.72;58.63;102414.28;5028943;28;20205;-76
2022/05/28 12:02:57;;;;;;;;;;;;;;;13.76;59.44;102412.44;5023422;28;19913;-76
2022/05/28 12:05:23;;;;;;;;;;;;;;;13.77;58.91;102409.75;5036140;28;20105;-75
2022/05/28 12:07:53;;;;;;;;;;;;;;;13.80;58.56;102400.91;5036195;28;19918;-75
2022/05/28 12:10:28;;;;;;;;;;;;;;;13.82;61.09;102417.50;5035664;28;19917;-75
2022/05/28 12:12:59;;;;;;;;;;;;;;;13.84;59.50;102415.69;5025735;28;19920;-75
2022/05/28 12:15:26;;;;;;;;;;;;;;;13.83;59.74;102406.94;5031009;28;19917;-75
2022/05/28 12:18:15;;;;;;;;;;;;;;;13.87;59.64;102402.44;5029921;28;19920;-75
2022/05/28 12:20:54;;;;;;;;;;;;;;;13.91;58.57;102400.59;5017210;28;19923;-76
2022/05/28 12:23:27;;;;;;;;;;;;;;;13.94;58.99;102390.81;5034476;28;20112;-75
2022/05/28 12:25:52;;;;;;;;;;;;;;;13.97;59.37;102389.84;5035277;28;20268;-75
2022/05/28 12:28:25;;;;;;;;;;;;;;;13.95;58.06;102392.56;5035426;28;19924;-75
2022/05/28 12:30:52;;;;;;;;;;;;;;;13.96;58.99;102389.00;5034596;28;19917;-75
2022/05/28 12:33:27;;;;;;;;;;;;;;;13.94;59.62;102398.72;5006328;28;19963;-76
2022/05/28 12:35:55;;;;;;;;;;;;;;;13.93;59.12;102385.59;5023415;28;20000;-75
2022/05/28 12:38:56;;;;;;;;;;;;;;;13.89;59.61;102397.13;5039766;28;19912;-75
2022/05/28 12:41:24;;;;;;;;;;;;;;;13.89;59.88;102392.72;4974337;28;19910;-75
2022/05/28 12:44:01;;;;;;;;;;;;;;;13.87;59.43;102385.78;5023267;28;19955;-75
2022/05/28 12:46:42;;;;;;;;;;;;;;;13.90;58.55;102380.41;5032694;28;19917;-75
2022/05/28 12:49:12;;;;;;;;;;;;;;;13.87;58.72;102386.63;5025431;28;19921;-76